createdAt,value
2022-10-22T00:02:01.723Z,23.4
2022-10-22T00:07:01.765Z,23.6
2022-10-22T00:12:01.776Z,23.9
2022-10-22T00:17:01.788Z,24.1
2022-10-22T00:22:01.449Z,24.2
2022-10-22T00:27:01.839Z,24.0
2022-10-22T00:32:02.806Z,24.4
2022-10-22T00:37:01.726Z,24.4
2022-10-22T00:42:01.808Z,24.4
2022-10-22T00:47:01.725Z,24.4
2022-10-22T00:52:01.704Z,24.4
2022-10-22T00:57:01.712Z,24.6
2022-10-22T01:02:01.713Z,24.7
2022-10-22T01:07:01.787Z,25.2
2022-10-22T01:12:01.684Z,25.9
2022-10-22T01:17:01.820Z,26.5
2022-10-22T01:22:01.905Z,26.4
2022-10-22T01:27:01.776Z,26.2
2022-10-22T01:32:01.659Z,26.0
2022-10-22T01:37:01.662Z,26.0
2022-10-22T01:42:01.542Z,25.8
2022-10-22T01:47:01.539Z,25.8
2022-10-22T01:52:14.988Z,26.0
2022-10-22T01:57:01.654Z,26.2
2022-10-22T02:02:01.621Z,25.7
2022-10-22T02:07:01.570Z,25.6
2022-10-22T02:12:01.741Z,25.7
2022-10-22T02:17:01.488Z,25.9
2022-10-22T02:22:02.594Z,25.9
2022-10-22T02:27:01.547Z,26.2
2022-10-22T02:32:01.629Z,26.3
2022-10-22T02:37:01.614Z,25.6
2022-10-22T02:42:01.651Z,25.4
2022-10-22T02:47:01.853Z,25.8
2022-10-22T02:52:01.870Z,25.9
2022-10-22T02:57:01.757Z,25.9
2022-10-22T03:02:01.751Z,26.1
2022-10-22T03:07:01.791Z,26.1
2022-10-22T03:17:01.747Z,25.3
2022-10-22T03:22:01.775Z,25.3
2022-10-22T03:27:01.841Z,25.7
2022-10-22T03:32:01.758Z,25.7
2022-10-22T03:37:01.875Z,26.2
2022-10-22T03:42:01.879Z,26.4
2022-10-22T03:47:03.224Z,26.4
2022-10-22T03:52:01.773Z,26.8
2022-10-22T03:57:01.646Z,27.0
2022-10-22T04:02:01.759Z,26.6
2022-10-22T04:07:01.788Z,26.6
2022-10-22T04:17:01.788Z,26.1
2022-10-22T04:22:01.761Z,25.7
2022-10-22T04:27:01.911Z,25.1
2022-10-22T04:32:01.732Z,25.2
2022-10-22T04:37:01.906Z,25.3
2022-10-22T04:42:01.720Z,25.4
2022-10-22T04:47:01.807Z,25.8
2022-10-22T04:52:01.837Z,26.3
2022-10-22T04:57:01.726Z,26.2
2022-10-22T05:02:01.729Z,26.0
2022-10-22T05:07:01.865Z,26.1
2022-10-22T05:12:01.730Z,25.8
2022-10-22T05:17:01.741Z,25.8
2022-10-22T05:22:01.764Z,25.9
2022-10-22T05:27:01.919Z,25.8
2022-10-22T05:32:01.725Z,26.0
2022-10-22T05:37:01.851Z,26.2
2022-10-22T05:42:01.724Z,26.2
2022-10-22T05:47:01.798Z,26.3
2022-10-22T05:52:01.834Z,26.6
2022-10-22T05:57:01.716Z,26.7
2022-10-22T06:02:01.855Z,27.0
2022-10-22T06:07:01.759Z,27.0
2022-10-22T06:12:01.782Z,26.0
2022-10-22T06:17:01.726Z,25.6
2022-10-22T06:22:01.734Z,25.4
2022-10-22T06:27:01.883Z,25.4
2022-10-22T06:32:01.743Z,25.4
2022-10-22T06:37:01.902Z,26.1
2022-10-22T06:42:01.723Z,26.3
2022-10-22T06:47:01.639Z,26.0
2022-10-22T06:52:01.707Z,26.0
2022-10-22T06:57:01.739Z,25.7
2022-10-22T07:02:01.701Z,25.7
2022-10-22T07:07:01.818Z,25.5
2022-10-22T07:12:01.696Z,25.7
2022-10-22T07:17:01.641Z,25.6
2022-10-22T07:27:02.237Z,26.2
2022-10-22T07:32:01.793Z,26.1
2022-10-22T07:37:01.386Z,26.0
2022-10-22T07:42:01.708Z,25.6
2022-10-22T07:47:01.898Z,25.6
2022-10-22T07:52:01.770Z,25.4
2022-10-22T07:57:01.729Z,25.6
2022-10-22T08:02:01.840Z,25.4
2022-10-22T08:07:02.041Z,25.4
2022-10-22T08:12:01.750Z,25.2
2022-10-22T08:17:01.772Z,25.0
2022-10-22T08:22:02.269Z,24.4
2022-10-22T08:27:01.872Z,24.5
2022-10-22T08:32:01.455Z,24.7
2022-10-22T08:37:01.920Z,25.1
2022-10-22T08:42:13.954Z,24.8
2022-10-22T08:47:01.595Z,25.3
2022-10-22T08:52:01.600Z,22.9
2022-10-22T08:57:17.643Z,19.5
2022-10-22T09:02:01.270Z,15.6
2022-10-22T09:07:01.561Z,11.9
2022-10-22T09:12:01.303Z,7.9
2022-10-22T09:17:01.770Z,5.8
2022-10-22T09:22:16.820Z,4.6
2022-10-22T09:27:01.625Z,3.5
2022-10-22T09:32:02.357Z,2.8
2022-10-22T09:37:05.629Z,2.3
2022-10-22T09:42:01.766Z,2.0
2022-10-22T09:47:01.761Z,1.6
2022-10-22T09:52:01.786Z,1.2
2022-10-22T09:57:01.826Z,1.4
2022-10-22T10:07:02.125Z,0.7
2022-10-22T10:12:16.165Z,0.5
2022-10-22T10:17:01.699Z,0.5
2022-10-22T10:22:01.705Z,0.2
2022-10-22T10:32:01.888Z,0.0
2022-10-22T10:47:12.915Z,0.0
2022-10-22T10:57:01.645Z,0.0
2022-10-22T11:02:01.665Z,0.2
2022-10-22T11:12:01.842Z,0.6
2022-10-22T11:17:01.744Z,0.6
2022-10-22T11:22:01.799Z,0.6
2022-10-22T11:27:06.174Z,0.4
2022-10-22T11:32:01.728Z,0.4
2022-10-22T11:42:01.842Z,0.5
2022-10-22T11:47:01.951Z,0.4
2022-10-22T11:52:05.807Z,0.6
2022-10-22T11:57:01.721Z,0.7
2022-10-22T12:07:02.094Z,0.5
2022-10-22T12:17:01.599Z,0.3
2022-10-22T12:22:01.770Z,0.1
2022-10-22T12:27:01.883Z,0.0
2022-10-22T12:32:01.629Z,0.2
2022-10-22T12:37:03.785Z,0.2
2022-10-22T12:47:02.319Z,0.2
2022-10-22T12:52:01.674Z,0.2
2022-10-22T12:58:01.667Z,0.0
2022-10-22T13:03:01.705Z,0.0
2022-10-22T13:18:01.628Z,0.2
2022-10-22T13:23:02.018Z,0.2
2022-10-22T13:28:01.614Z,0.2
2022-10-22T13:33:01.697Z,0.2
2022-10-22T13:48:01.819Z,0.2
2022-10-22T13:58:01.756Z,0.2
2022-10-22T14:03:01.764Z,0.4
2022-10-22T14:13:01.874Z,0.5
2022-10-22T14:28:01.730Z,0.8
2022-10-22T14:33:01.774Z,0.5
2022-10-22T14:38:01.833Z,0.7
2022-10-22T14:43:01.722Z,1.0
2022-10-22T14:48:01.719Z,0.8
2022-10-22T15:03:04.787Z,0.6
2022-10-22T15:08:01.733Z,0.2
2022-10-22T15:33:03.011Z,0.0
2022-10-22T15:38:01.899Z,0.1
2022-10-22T15:43:02.626Z,0.6
2022-10-22T15:48:02.587Z,0.7
2022-10-22T15:53:02.878Z,0.9
2022-10-22T16:03:01.886Z,1.1
2022-10-22T16:08:01.800Z,0.8
2022-10-22T16:13:01.889Z,1.0
2022-10-22T16:18:01.740Z,1.6
2022-10-22T16:23:02.152Z,2.1
2022-10-22T16:28:01.786Z,2.5
2022-10-22T16:33:05.241Z,3.3
2022-10-22T16:38:02.148Z,4.2
2022-10-22T16:43:02.272Z,4.6
2022-10-22T16:48:01.752Z,5.4
2022-10-22T16:53:02.220Z,6.0
2022-10-22T16:58:01.678Z,6.6
2022-10-22T17:03:02.577Z,7.0
2022-10-22T17:08:01.708Z,8.1
2022-10-22T17:13:01.666Z,8.8
2022-10-22T17:18:01.657Z,9.4
2022-10-22T17:23:01.547Z,10.0
2022-10-22T17:28:02.535Z,9.4
2022-10-22T17:33:01.554Z,9.4
2022-10-22T17:38:01.493Z,10.4
2022-10-22T17:43:01.517Z,12.6
2022-10-22T17:48:01.552Z,14.0
2022-10-22T17:53:01.683Z,16.2
2022-10-22T17:58:01.452Z,16.9
2022-10-22T18:03:01.650Z,17.0
2022-10-22T18:08:08.147Z,16.2
2022-10-22T18:13:02.643Z,15.4
2022-10-22T18:18:02.040Z,14.6
2022-10-22T18:23:01.551Z,14.2
2022-10-22T18:28:01.879Z,13.8
2022-10-22T18:33:02.104Z,12.8
2022-10-22T18:38:01.612Z,11.0
2022-10-22T18:43:01.816Z,10.8
2022-10-22T18:48:02.013Z,10.0
2022-10-22T18:53:02.120Z,9.3
2022-10-22T18:58:01.801Z,9.4
2022-10-22T19:03:01.935Z,11.3
2022-10-22T19:08:01.953Z,11.2
2022-10-22T19:13:02.651Z,11.6
2022-10-22T19:18:01.757Z,12.1
2022-10-22T19:23:01.781Z,12.1
2022-10-22T19:28:01.813Z,10.9
2022-10-22T19:33:01.759Z,10.9
2022-10-22T19:38:01.738Z,10.4
2022-10-22T19:43:01.851Z,10.0
2022-10-22T19:48:01.821Z,9.3
2022-10-22T19:53:01.833Z,9.4
2022-10-22T19:58:01.813Z,9.1
2022-10-22T20:03:02.436Z,9.0
2022-10-22T20:08:02.052Z,8.5
2022-10-22T20:13:01.599Z,8.4
2022-10-22T20:18:01.465Z,8.3
2022-10-22T20:33:01.529Z,8.6
2022-10-22T20:43:01.804Z,8.7
2022-10-22T20:48:04.591Z,8.3
2022-10-22T20:53:01.736Z,7.6
2022-10-22T20:58:01.755Z,7.0
2022-10-22T21:03:01.739Z,6.9
2022-10-22T21:08:01.788Z,7.0
2022-10-22T21:13:01.774Z,7.0
2022-10-22T21:18:01.555Z,7.2
2022-10-22T21:23:01.507Z,7.8
2022-10-22T21:28:01.456Z,7.7
2022-10-22T21:33:02.250Z,7.6
2022-10-22T21:38:01.734Z,7.6
2022-10-22T21:43:01.691Z,7.8
2022-10-22T21:48:01.890Z,7.8
2022-10-22T21:53:02.297Z,7.8
2022-10-22T21:58:01.402Z,7.6
2022-10-22T22:03:01.122Z,7.8
2022-10-22T22:08:01.686Z,7.6
2022-10-22T22:13:01.489Z,7.7
2022-10-22T22:18:01.747Z,7.7
2022-10-22T22:23:01.735Z,7.9
2022-10-22T22:28:01.853Z,7.6
2022-10-22T22:33:01.745Z,7.6
2022-10-22T22:38:01.789Z,7.0
2022-10-22T22:43:01.446Z,6.7
2022-10-22T22:48:01.796Z,6.7
2022-10-22T22:53:01.861Z,6.7
2022-10-22T22:58:01.747Z,6.7
2022-10-22T23:03:01.772Z,7.2
2022-10-22T23:08:01.854Z,6.9
2022-10-22T23:13:01.749Z,6.5
2022-10-22T23:18:01.736Z,6.4
2022-10-22T23:23:01.765Z,6.1
2022-10-22T23:28:01.793Z,5.9
2022-10-22T23:33:01.812Z,6.5
2022-10-22T23:38:01.729Z,6.4
2022-10-22T23:43:01.840Z,6.5
2022-10-22T23:48:01.755Z,6.8
2022-10-22T23:53:01.743Z,6.7
2022-10-22T23:58:01.732Z,6.5
